Time;durP1;ratioP1;P1;durP2;ratioP2;P2;SDS_P1;SDS_P2;PMS_P1;PMS_P2;Temp;Humidity;BMP_temperature;BMP_pressure;BME280_temperature;BME280_humidity;BME280_pressure;Samples;Min_cycle;Max_cycle;Signal;HPM_P1;HPM_P2
2023/09/15 00:00:44;;;;;;;15.00;9.00;;;;;;;24.97;42.71;102128.34;4982824;28;20365;-35
2023/09/15 00:03:11;;;;;;;12.88;8.88;;;;;;;24.96;42.62;102126.59;4983175;28;20888;-35
2023/09/15 00:05:38;;;;;;;12.13;8.30;;;;;;;24.94;42.68;102123.22;4981531;28;20082;-35
2023/09/15 00:08:06;;;;;;;11.02;7.57;;;;;;;24.93;42.87;102115.28;4981892;28;20092;-35
2023/09/15 00:10:34;;;;;;;12.98;8.27;;;;;;;24.92;43.00;102118.97;4983031;28;20097;-35
2023/09/15 00:13:02;;;;;;;12.45;7.85;;;;;;;24.91;43.08;102118.13;4980758;28;20137;-35
2023/09/15 00:15:28;;;;;;;13.68;7.65;;;;;;;24.89;43.09;102112.06;4980042;28;20109;-35
2023/09/15 00:17:55;;;;;;;11.10;7.20;;;;;;;24.87;42.67;102114.91;4984245;28;20081;-35
2023/09/15 00:20:22;;;;;;;12.05;7.50;;;;;;;24.87;43.07;102116.78;4978699;28;20062;-35
2023/09/15 00:22:53;;;;;;;10.95;7.13;;;;;;;24.85;43.19;102110.69;4981390;28;20133;-35
2023/09/15 00:25:25;;;;;;;11.75;7.32;;;;;;;24.84;42.99;102106.25;4982908;28;20673;-35
2023/09/15 00:28:01;;;;;;;10.82;7.65;;;;;;;24.81;42.72;102112.03;4985023;28;20053;-35
2023/09/15 00:30:28;;;;;;;9.80;6.60;;;;;;;24.82;42.63;102113.72;4979314;28;20061;-35
2023/09/15 00:32:56;;;;;;;10.43;6.70;;;;;;;24.79;42.94;102109.47;4981034;28;20046;-35
2023/09/15 00:35:27;;;;;;;12.32;6.80;;;;;;;24.79;42.81;102108.63;4985612;28;20112;-35
2023/09/15 00:37:55;;;;;;;9.77;6.88;;;;;;;24.77;43.18;102100.69;4981894;28;20057;-35
2023/09/15 00:40:22;;;;;;;11.93;7.60;;;;;;;24.77;43.30;102105.25;4981762;28;20073;-35
2023/09/15 00:42:50;;;;;;;10.15;6.95;;;;;;;24.75;42.96;102102.69;4983356;28;20109;-35
2023/09/15 00:45:21;;;;;;;10.63;7.07;;;;;;;24.75;43.17;102112.69;4980476;28;20137;-35
2023/09/15 00:47:52;;;;;;;10.38;6.78;;;;;;;24.74;43.02;102105.59;4985694;28;20058;-35
2023/09/15 00:50:25;;;;;;;10.45;7.05;;;;;;;24.73;42.99;102103.91;4985936;28;20089;-35
2023/09/15 00:52:57;;;;;;;10.43;7.03;;;;;;;24.72;43.07;102103.03;4986390;28;20042;-35
2023/09/15 00:55:26;;;;;;;9.80;6.20;;;;;;;24.71;43.34;102103.19;4985142;28;20054;-35
2023/09/15 00:57:54;;;;;;;8.95;6.53;;;;;;;24.69;43.30;102092.53;4981211;28;20080;-35
2023/09/15 01:00:22;;;;;;;10.07;7.13;;;;;;;24.68;43.47;102092.69;4988743;28;20674;-35
2023/09/15 01:02:50;;;;;;;9.40;5.90;;;;;;;24.67;43.05;102099.97;4985396;28;20078;-35
2023/09/15 01:05:22;;;;;;;9.27;6.53;;;;;;;24.66;42.99;102095.56;4982734;28;20054;-35
2023/09/15 01:07:52;;;;;;;11.68;6.57;;;;;;;24.66;42.92;102092.03;4982805;28;20056;-35
2023/09/15 01:10:19;;;;;;;9.40;6.32;;;;;;;24.65;43.52;102095.75;4983614;28;20121;-35
2023/09/15 01:12:51;;;;;;;10.55;6.38;;;;;;;24.63;43.41;102094.03;4983398;28;20073;-35
2023/09/15 01:15:18;;;;;;;8.70;6.45;;;;;;;24.63;43.46;102094.03;4986064;28;20055;-35
2023/09/15 01:18:08;;;;;;;10.45;6.05;;;;;;;24.60;43.64;102088.97;4985863;28;20050;-35
2023/09/15 01:21:07;;;;;;;9.23;5.85;;;;;;;24.60;43.21;102082.69;4982202;28;20054;-35
2023/09/15 01:24:11;;;;;;;8.05;5.65;;;;;;;24.58;43.25;102080.16;4977653;28;20061;-35
2023/09/15 01:27:02;;;;;;;9.18;5.93;;;;;;;24.57;43.03;102075.75;4982102;28;20683;-35
2023/09/15 01:29:29;;;;;;;8.57;5.90;;;;;;;24.58;43.35;102080.16;4985013;28;20066;-35
2023/09/15 01:31:57;;;;;;;8.02;5.70;;;;;;;24.56;43.54;102076.78;4986692;28;20050;-35
2023/09/15 01:34:23;;;;;;;9.65;6.10;;;;;;;24.55;43.50;102076.91;4988992;28;20455;-35
2023/09/15 01:36:53;;;;;;;10.02;6.43;;;;;;;24.54;43.65;102075.22;4987225;28;20885;-35
2023/09/15 01:39:20;;;;;;;9.75;6.15;;;;;;;24.54;43.66;102072.50;4983782;28;20058;-35
2023/09/15 01:41:47;;;;;;;8.60;5.57;;;;;;;24.52;43.28;102069.09;4983478;28;20054;-36
2023/09/15 01:44:13;;;;;;;10.18;5.82;;;;;;;24.51;43.45;102068.25;4984887;28;20390;-36
2023/09/15 01:46:40;;;;;;;6.88;4.90;;;;;;;24.50;43.61;102068.44;4988758;28;20666;-35
2023/09/15 01:49:07;;;;;;;8.45;5.45;;;;;;;24.49;43.47;102070.31;4987089;28;20493;-35
2023/09/15 01:51:34;;;;;;;8.20;5.53;;;;;;;24.49;43.54;102072.19;4982632;28;20043;-35
2023/09/15 01:54:01;;;;;;;8.90;5.75;;;;;;;24.47;43.86;102075.03;4983402;28;20061;-35
2023/09/15 01:56:29;;;;;;;7.90;5.43;;;;;;;24.46;43.44;102070.63;4980591;28;20087;-35
2023/09/15 01:58:56;;;;;;;8.55;5.80;;;;;;;24.45;43.57;102068.09;4981604;28;20058;-35
2023/09/15 02:01:23;;;;;;;7.00;4.93;;;;;;;24.44;43.77;102072.66;4986125;28;20070;-35
2023/09/15 02:03:50;;;;;;;6.50;4.88;;;;;;;24.42;43.22;102063.84;4985231;28;20132;-35
2023/09/15 02:06:17;;;;;;;7.60;4.70;;;;;;;24.42;43.55;102069.28;4984381;28;20054;-35
2023/09/15 02:08:44;;;;;;;6.47;4.50;;;;;;;24.42;43.38;102060.31;4988629;28;20465;-35
2023/09/15 02:11:12;;;;;;;8.80;5.70;;;;;;;24.41;43.43;102066.75;4984194;28;20085;-35
2023/09/15 02:13:40;;;;;;;7.85;4.93;;;;;;;24.40;44.00;102065.03;4982798;28;20138;-35
2023/09/15 02:16:06;;;;;;;6.57;4.80;;;;;;;24.39;43.63;102064.19;4980806;28;20082;-35
2023/09/15 02:18:33;;;;;;;7.05;4.82;;;;;;;24.39;43.70;102064.19;4983718;28;20057;-35
2023/09/15 02:21:00;;;;;;;6.47;4.60;;;;;;;24.37;43.98;102058.06;4981691;28;20116;-35
2023/09/15 02:23:27;;;;;;;6.43;4.35;;;;;;;24.36;43.71;102062.63;4984763;28;20101;-35
2023/09/15 02:25:53;;;;;;;6.15;4.80;;;;;;;24.35;43.24;102063.63;4985610;28;20078;-35
2023/09/15 02:28:20;;;;;;;6.45;4.35;;;;;;;24.35;43.65;102060.91;4980625;28;20129;-35
2023/09/15 02:30:47;;;;;;;6.85;4.80;;;;;;;24.35;44.23;102062.78;4981210;28;20065;-35
2023/09/15 02:33:14;;;;;;;6.45;4.60;;;;;;;24.34;43.39;102055.69;4983845;28;20053;-36
2023/09/15 02:35:41;;;;;;;8.20;5.18;;;;;;;24.33;44.12;102054.00;4985298;28;20124;-35
2023/09/15 02:38:07;;;;;;;5.60;3.92;;;;;;;24.32;43.52;102057.69;4984387;28;20074;-35
2023/09/15 02:40:34;;;;;;;7.10;4.65;;;;;;;24.31;44.18;102053.28;4988691;28;20085;-35
2023/09/15 02:43:01;;;;;;;7.68;4.70;;;;;;;24.30;43.58;102055.16;4983812;28;20043;-35
2023/09/15 02:45:27;;;;;;;6.97;4.68;;;;;;;24.29;43.71;102055.34;4983654;28;20064;-35
2023/09/15 02:47:54;;;;;;;6.75;4.18;;;;;;;24.28;43.52;102051.78;4979801;28;20695;-35
2023/09/15 02:50:21;;;;;;;6.47;4.55;;;;;;;24.27;44.04;102051.94;4982631;28;20129;-35
2023/09/15 02:52:48;;;;;;;6.38;4.30;;;;;;;24.26;44.04;102053.78;4980635;28;20078;-35
2023/09/15 02:55:14;;;;;;;6.38;4.13;;;;;;;24.26;43.53;102055.66;4983555;28;20105;-35
2023/09/15 02:57:41;;;;;;;7.18;4.60;;;;;;;24.24;43.65;102050.41;4979978;28;20726;-35
2023/09/15 03:00:09;;;;;;;6.40;4.00;;;;;;;24.24;43.98;102049.53;4982875;28;20465;-35
2023/09/15 03:02:38;;;;;;;8.13;4.55;;;;;;;24.22;43.84;102046.16;4979980;28;20078;-35
2023/09/15 03:05:05;;;;;;;7.80;4.57;;;;;;;24.22;43.93;102048.88;4981881;28;20084;-36
2023/09/15 03:07:32;;;;;;;5.82;4.63;;;;;;;24.22;43.86;102043.47;4980367;28;20075;-35
2023/09/15 03:09:59;;;;;;;9.18;3.83;;;;;;;24.21;44.08;102039.06;4984593;28;20141;-36
2023/09/15 03:12:25;;;;;;;7.38;4.03;;;;;;;24.19;44.21;102047.34;4987106;28;20058;-35
2023/09/15 03:14:52;;;;;;;5.45;4.05;;;;;;;24.18;44.12;102045.66;4983041;28;20130;-35
2023/09/15 03:17:21;;;;;;;4.95;3.60;;;;;;;24.17;43.72;102046.66;4982642;28;20053;-35
2023/09/15 03:19:48;;;;;;;6.47;4.35;;;;;;;24.15;44.29;102035.13;4980996;28;20078;-36
2023/09/15 03:22:14;;;;;;;5.60;3.83;;;;;;;24.16;44.07;102041.38;4983171;28;20140;-35
2023/09/15 03:24:44;;;;;;;5.53;3.75;;;;;;;24.14;43.74;102034.28;4984339;28;20069;-35
2023/09/15 03:27:11;;;;;;;6.30;4.18;;;;;;;24.13;44.03;102029.88;4979382;28;20054;-35
2023/09/15 03:29:37;;;;;;;5.45;3.65;;;;;;;24.12;43.89;102028.19;4981031;28;20061;-35
2023/09/15 03:32:04;;;;;;;4.95;3.55;;;;;;;24.12;43.74;102024.63;4981320;28;20442;-35
2023/09/15 03:34:30;;;;;;;7.18;4.00;;;;;;;24.11;44.29;102026.47;4982085;28;20501;-35
2023/09/15 03:36:59;;;;;;;6.07;4.03;;;;;;;24.11;43.95;102025.63;4981920;28;20501;-35
2023/09/15 03:39:26;;;;;;;5.32;3.72;;;;;;;24.10;43.86;102027.50;4982252;28;20054;-35
2023/09/15 03:41:52;;;;;;;6.20;4.00;;;;;;;24.09;44.27;102027.69;4980180;28;20056;-35
2023/09/15 03:44:21;;;;;;;6.03;3.95;;;;;;;24.08;44.33;102024.13;4988182;28;20129;-35
2023/09/15 03:46:47;;;;;;;5.72;3.40;;;;;;;24.07;44.20;102022.41;4983276;28;20096;-35
2023/09/15 03:49:14;;;;;;;5.38;3.88;;;;;;;24.06;44.17;102018.00;4984628;28;20046;-35
2023/09/15 03:51:41;;;;;;;6.15;3.78;;;;;;;24.07;43.97;102018.84;4980523;28;20058;-35
2023/09/15 03:54:08;;;;;;;5.15;3.70;;;;;;;24.05;44.06;102023.59;4979068;28;20185;-35
2023/09/15 03:56:34;;;;;;;4.22;3.20;;;;;;;24.04;44.43;102014.63;4982346;28;20074;-35
2023/09/15 03:59:02;;;;;;;6.53;3.78;;;;;;;24.03;43.90;102015.63;4980559;28;20134;-35
2023/09/15 04:01:29;;;;;;;5.38;3.63;;;;;;;24.02;44.48;102019.34;4982829;28;20043;-35
2023/09/15 04:03:56;;;;;;;5.55;3.42;;;;;;;24.02;44.49;102007.69;5013713;28;20144;-35
2023/09/15 04:06:23;;;;;;;5.65;3.97;;;;;;;24.01;43.88;102012.25;4983160;28;20054;-35
2023/09/15 04:08:50;;;;;;;5.45;3.45;;;;;;;24.00;44.68;102010.56;4980573;28;20046;-35
2023/09/15 04:11:16;;;;;;;5.72;3.40;;;;;;;23.99;44.68;102008.00;4983904;28;20074;-35
2023/09/15 04:13:43;;;;;;;5.40;3.50;;;;;;;23.98;44.39;102011.72;4986653;28;20125;-35
2023/09/15 04:16:09;;;;;;;4.53;3.28;;;;;;;23.98;44.51;102015.28;5017101;28;20061;-35
2023/09/15 04:18:36;;;;;;;4.60;3.60;;;;;;;23.97;44.73;102005.47;4986127;28;20132;-35
2023/09/15 04:21:03;;;;;;;4.85;3.33;;;;;;;23.97;44.24;102012.75;4988145;28;20149;-35
2023/09/15 04:23:30;;;;;;;4.57;3.20;;;;;;;23.96;44.24;102009.19;4982954;28;20133;-35
2023/09/15 04:25:57;;;;;;;4.25;3.20;;;;;;;23.95;44.09;102009.34;4980278;28;20447;-35
2023/09/15 04:28:23;;;;;;;4.88;3.60;;;;;;;23.95;44.63;102009.34;4983562;28;20051;-35
2023/09/15 04:30:50;;;;;;;4.60;3.00;;;;;;;23.93;44.29;102004.09;4986175;28;20061;-35
2023/09/15 04:33:17;;;;;;;6.03;3.72;;;;;;;23.93;44.38;102009.53;4984250;28;20082;-35
2023/09/15 04:35:43;;;;;;;4.03;3.10;;;;;;;23.93;43.99;102014.09;4985596;28;20137;-35
2023/09/15 04:38:10;;;;;;;4.50;3.40;;;;;;;23.92;44.41;102009.66;4986340;28;20058;-35
2023/09/15 04:40:36;;;;;;;6.18;3.10;;;;;;;23.91;44.27;101999.84;4985087;28;20201;-35
2023/09/15 04:43:04;;;;;;;4.22;3.10;;;;;;;23.89;44.06;102006.28;5015528;28;20054;-35
2023/09/15 04:45:31;;;;;;;4.57;3.35;;;;;;;23.91;44.14;102003.41;4983065;28;20419;-35
2023/09/15 04:47:57;;;;;;;4.57;3.45;;;;;;;23.87;44.37;102002.88;4979634;28;20137;-35
2023/09/15 04:50:24;;;;;;;4.25;3.20;;;;;;;23.87;44.73;101997.47;4983716;28;20046;-35
2023/09/15 04:52:52;;;;;;;5.13;3.38;;;;;;;23.87;44.48;101999.34;4982072;28;20097;-35
2023/09/15 04:55:19;;;;;;;4.93;3.40;;;;;;;23.86;44.58;102001.19;4988003;28;20470;-35
2023/09/15 04:57:46;;;;;;;3.85;2.70;;;;;;;23.86;44.33;102000.34;4980645;28;20764;-35
2023/09/15 05:00:13;;;;;;;4.57;2.95;;;;;;;23.84;44.18;102005.06;4985239;28;20074;-35
2023/09/15 05:02:45;;;;;;;4.53;3.15;;;;;;;23.84;44.08;102000.53;4982820;28;20046;-35
2023/09/15 05:05:12;;;;;;;6.13;3.17;;;;;;;23.82;44.90;102009.81;4984393;28;20054;-35
2023/09/15 05:07:38;;;;;;;5.03;3.20;;;;;;;23.82;44.10;102007.09;4985488;28;20051;-35
2023/09/15 05:10:07;;;;;;;4.72;3.45;;;;;;;23.82;44.61;102007.09;4984081;28;20394;-35
2023/09/15 05:12:34;;;;;;;4.25;2.83;;;;;;;23.81;44.65;102008.97;4985772;28;20050;-35
2023/09/15 05:15:03;;;;;;;6.45;2.97;;;;;;;23.79;44.36;102016.41;4986666;28;20078;-35
2023/09/15 05:17:29;;;;;;;6.72;3.15;;;;;;;23.79;44.41;102012.84;4983682;28;20138;-35
2023/09/15 05:19:56;;;;;;;4.25;2.92;;;;;;;23.79;44.37;102008.28;4984305;28;20057;-36
2023/09/15 05:22:23;;;;;;;3.67;2.72;;;;;;;23.78;44.81;102013.84;4985777;28;20065;-35
2023/09/15 05:24:50;;;;;;;4.65;2.95;;;;;;;23.78;44.46;102003.03;4980837;28;20046;-36
2023/09/15 05:27:18;;;;;;;5.45;3.25;;;;;;;23.77;44.54;102012.16;4983894;28;20109;-36
2023/09/15 05:29:44;;;;;;;4.13;3.08;;;;;;;23.77;44.19;102014.88;4981620;28;20095;-36
2023/09/15 05:32:11;;;;;;;4.30;3.15;;;;;;;23.76;44.79;102018.56;4983156;28;20105;-36
2023/09/15 05:34:38;;;;;;;4.43;2.67;;;;;;;23.75;44.45;102019.59;4984957;28;20050;-36
2023/09/15 05:37:05;;;;;;;4.45;3.03;;;;;;;23.75;44.36;102022.31;4985540;28;20387;-36
2023/09/15 05:39:31;;;;;;;4.22;2.95;;;;;;;23.74;44.16;102012.50;4982721;28;20058;-35
2023/09/15 05:41:58;;;;;;;4.20;2.58;;;;;;;23.73;44.94;102014.34;4980455;28;20055;-36
2023/09/15 05:44:25;;;;;;;3.85;2.60;;;;;;;23.74;44.41;102026.03;4982003;28;20089;-35
2023/09/15 05:46:53;;;;;;;4.38;2.72;;;;;;;23.74;44.59;102020.63;4987975;28;20075;-36
2023/09/15 05:49:20;;;;;;;4.68;3.28;;;;;;;23.73;44.84;102021.63;4980169;28;20081;-36
2023/09/15 05:51:46;;;;;;;4.03;2.92;;;;;;;23.72;44.45;102022.63;4986793;28;20050;-36
2023/09/15 05:54:13;;;;;;;5.00;3.08;;;;;;;23.72;44.29;102028.03;4984972;28;20059;-36
2023/09/15 05:56:40;;;;;;;7.15;3.42;;;;;;;23.72;44.94;102022.63;4988789;28;20406;-36
2023/09/15 05:59:07;;;;;;;6.32;3.80;;;;;;;23.71;44.39;102016.34;4982673;28;20058;-36
2023/09/15 06:01:33;;;;;;;5.72;3.97;;;;;;;23.71;44.84;102020.94;4984510;28;20046;-36
2023/09/15 06:04:00;;;;;;;5.47;3.20;;;;;;;23.71;44.40;102029.06;4983431;28;20058;-36
2023/09/15 06:06:27;;;;;;;5.70;3.70;;;;;;;23.70;44.46;102020.09;4982691;28;20066;-36
2023/09/15 06:08:54;;;;;;;5.40;3.58;;;;;;;23.70;44.42;102024.66;4987209;28;20078;-36
2023/09/15 06:11:20;;;;;;;5.07;3.67;;;;;;;23.70;44.82;102027.38;4980954;28;20050;-36
2023/09/15 06:13:47;;;;;;;5.85;3.40;;;;;;;23.71;44.54;102034.47;4985000;28;20054;-37
2023/09/15 06:16:14;;;;;;;5.93;3.70;;;;;;;23.71;44.40;102029.06;4985567;28;20054;-36
2023/09/15 06:18:41;;;;;;;10.98;3.90;;;;;;;23.71;44.73;102029.06;4984086;28;20051;-36
2023/09/15 06:21:07;;;;;;;5.70;3.50;;;;;;;23.72;45.03;102028.03;4985296;28;20051;-36
2023/09/15 06:23:34;;;;;;;6.90;3.60;;;;;;;23.71;44.65;102031.75;4981805;28;20327;-36
2023/09/15 06:26:00;;;;;;;6.45;4.05;;;;;;;23.71;44.39;102038.03;4979009;28;20078;-36
2023/09/15 06:28:27;;;;;;;9.15;5.18;;;;;;;23.72;44.78;102039.75;4984501;28;20050;-36
2023/09/15 06:30:54;;;;;;;9.65;5.80;;;;;;;23.75;44.54;102038.53;4982952;28;20054;-36
2023/09/15 06:33:21;;;;;;;12.93;6.85;;;;;;;23.76;44.27;102034.81;4980903;28;20049;-36
2023/09/15 06:35:47;;;;;;;10.93;6.80;;;;;;;23.77;44.77;102037.38;4987122;28;20046;-36
2023/09/15 06:38:14;;;;;;;11.18;6.63;;;;;;;23.78;44.35;102039.06;4981199;28;20055;-35
2023/09/15 06:40:41;;;;;;;13.88;7.38;;;;;;;23.79;44.39;102035.34;4983018;28;20398;-35
2023/09/15 06:43:07;;;;;;;12.38;7.45;;;;;;;23.79;44.03;102029.94;4982141;28;20466;-36
2023/09/15 06:45:34;;;;;;;11.48;6.82;;;;;;;23.80;44.32;102034.34;4980239;28;20054;-36
2023/09/15 06:48:02;;;;;;;11.55;7.03;;;;;;;23.80;44.51;102031.66;4980695;28;20490;-36
2023/09/15 06:50:29;;;;;;;11.23;6.93;;;;;;;23.81;44.36;102029.78;4983616;28;20497;-36
2023/09/15 06:52:56;;;;;;;13.63;7.10;;;;;;;23.81;44.26;102027.91;4984309;28;20039;-36
2023/09/15 06:55:22;;;;;;;11.82;7.45;;;;;;;23.81;43.97;102018.97;4984880;28;20041;-36
2023/09/15 06:57:50;;;;;;;9.65;6.15;;;;;;;23.81;43.95;102022.50;4980714;28;20081;-35
2023/09/15 07:00:17;;;;;;;10.43;6.82;;;;;;;23.81;44.17;102017.09;4982428;28;20053;-36
2023/09/15 07:02:43;;;;;;;9.93;6.18;;;;;;;23.81;44.19;102017.09;4979651;28;20084;-35
2023/09/15 07:05:11;;;;;;;10.52;6.13;;;;;;;23.81;43.91;102016.25;4982899;28;20874;-35
2023/09/15 07:07:37;;;;;;;12.10;6.80;;;;;;;23.81;44.31;102016.25;4982938;28;20046;-36
2023/09/15 07:10:05;;;;;;;10.10;6.57;;;;;;;23.80;44.31;102015.41;4978323;28;20518;-36
2023/09/15 07:12:32;;;;;;;10.20;7.03;;;;;;;23.82;44.31;102015.22;4977444;28;20108;-35
2023/09/15 07:15:02;;;;;;;11.52;6.50;;;;;;;23.82;44.25;102017.94;4983244;28;20047;-36
2023/09/15 07:17:29;;;;;;;12.85;7.10;;;;;;;23.82;44.41;102012.53;4981956;28;20146;-35
2023/09/15 07:19:55;;;;;;;12.07;5.75;;;;;;;23.82;44.29;102017.94;4980904;28;20060;-36
2023/09/15 07:22:24;;;;;;;11.02;5.90;;;;;;;23.83;44.21;102019.63;4982651;28;20057;-35
2023/09/15 07:24:51;;;;;;;9.93;5.72;;;;;;;23.82;44.62;102007.09;4989147;28;20128;-35
2023/09/15 07:27:18;;;;;;;10.00;5.10;;;;;;;23.81;44.46;102019.81;4981765;28;20603;-35
2023/09/15 07:29:45;;;;;;;8.82;5.15;;;;;;;23.81;44.24;102010.84;4978302;28;20093;-36
2023/09/15 07:32:12;;;;;;;11.82;4.97;;;;;;;23.81;44.64;102014.38;5011773;28;20085;-36
2023/09/15 07:34:38;;;;;;;12.68;5.25;;;;;;;23.81;44.08;102000.00;4980258;28;20121;-36
2023/09/15 07:37:06;;;;;;;9.70;4.68;;;;;;;23.80;44.61;102001.88;4980188;28;20431;-36
2023/09/15 07:39:32;;;;;;;8.60;4.63;;;;;;;23.81;44.32;102000.00;4983489;28;20053;-36
2023/09/15 07:41:59;;;;;;;8.57;4.25;;;;;;;23.80;44.42;101998.28;4983784;28;20054;-36
2023/09/15 07:44:26;;;;;;;12.18;4.20;;;;;;;23.80;44.47;101996.44;4980886;28;20141;-36
2023/09/15 07:46:52;;;;;;;7.03;3.63;;;;;;;23.79;44.45;101988.47;4980043;28;20109;-36
2023/09/15 07:49:19;;;;;;;5.32;3.45;;;;;;;23.79;44.08;101992.03;4978374;28;20450;-36
2023/09/15 07:51:48;;;;;;;7.55;4.03;;;;;;;23.78;44.70;101987.63;4980020;28;20096;-36
2023/09/15 07:54:15;;;;;;;7.97;3.80;;;;;;;23.78;44.45;101990.34;4981443;28;20039;-36
2023/09/15 07:56:42;;;;;;;11.63;4.63;;;;;;;23.78;44.63;101984.91;4983944;28;20373;-36
2023/09/15 07:59:08;;;;;;;15.15;8.65;;;;;;;23.78;44.16;101984.09;4984743;28;20410;-36
2023/09/15 08:01:35;;;;;;;22.58;12.52;;;;;;;23.78;44.49;101984.09;4975921;28;20513;-36
2023/09/15 08:04:02;;;;;;;25.35;15.05;;;;;;;23.79;44.46;101983.06;4979423;28;20050;-36
2023/09/15 08:06:29;;;;;;;28.35;14.80;;;;;;;23.78;44.09;101981.38;4974487;28;20320;-36
2023/09/15 08:08:56;;;;;;;24.40;14.45;;;;;;;23.78;44.20;101984.09;4981393;28;20054;-36
2023/09/15 08:11:22;;;;;;;23.10;14.35;;;;;;;23.78;44.03;101987.63;4980939;28;20042;-36
2023/09/15 08:13:49;;;;;;;25.98;13.88;;;;;;;23.79;44.27;101983.06;4982006;28;20365;-37
2023/09/15 08:16:16;;;;;;;24.92;13.38;;;;;;;23.78;44.23;101984.09;4981668;28;20050;-37
2023/09/15 08:18:43;;;;;;;19.67;12.18;;;;;;;23.78;44.41;101986.78;4982427;28;20050;-36
2023/09/15 08:21:09;;;;;;;18.65;11.68;;;;;;;23.78;44.16;101981.38;4981329;28;20054;-36
2023/09/15 08:23:36;;;;;;;19.75;12.00;;;;;;;23.78;44.45;101976.81;4980516;28;20117;-36
2023/09/15 08:26:02;;;;;;;24.10;12.75;;;;;;;23.78;44.24;101971.38;4981683;28;20089;-37
2023/09/15 08:28:29;;;;;;;27.65;13.77;;;;;;;23.79;44.50;101973.06;4983987;28;20053;-37
2023/09/15 08:30:56;;;;;;;24.95;13.95;;;;;;;23.79;44.54;101974.94;4985343;28;20052;-36
2023/09/15 08:33:23;;;;;;;26.25;14.60;;;;;;;23.80;44.05;101976.63;4981952;28;20046;-37
2023/09/15 08:35:49;;;;;;;25.02;13.10;;;;;;;23.80;44.27;101982.91;4977741;28;20181;-36
2023/09/15 08:38:16;;;;;;;26.13;12.55;;;;;;;23.82;44.06;101982.75;4981122;28;20442;-36
2023/09/15 08:40:59;;;;;;;26.45;13.38;;;;;;;23.80;43.83;101982.91;5010037;28;20121;-36
2023/09/15 08:43:26;;;;;;;22.43;11.60;;;;;;;23.82;43.93;101985.44;4978637;28;20568;-36
2023/09/15 08:45:53;;;;;;;23.20;11.98;;;;;;;23.82;44.07;101980.88;4978757;28;20178;-36
2023/09/15 08:48:24;;;;;;;26.52;12.45;;;;;;;23.84;43.98;101988.81;4982094;28;20072;-36
2023/09/15 08:50:58;;;;;;;21.67;12.10;;;;;;;23.85;44.57;101990.53;4977911;28;20050;-36
2023/09/15 08:53:25;;;;;;;19.88;11.88;;;;;;;23.85;44.02;101983.25;4976699;28;20054;-36
2023/09/15 08:55:52;;;;;;;23.60;11.55;;;;;;;23.87;44.43;101983.94;4979315;28;20046;-36
2023/09/15 08:58:19;;;;;;;22.70;11.07;;;;;;;23.87;44.04;101983.94;4975294;28;20082;-36
2023/09/15 09:00:46;;;;;;;20.48;10.30;;;;;;;23.89;44.21;101978.38;4979240;28;20503;-36
2023/09/15 09:03:13;;;;;;;19.33;9.80;;;;;;;23.91;44.63;101989.03;4983739;28;20078;-36
2023/09/15 09:05:46;;;;;;;16.67;8.75;;;;;;;23.92;44.41;101982.59;4986841;28;20060;-36
2023/09/15 09:08:13;;;;;;;13.77;7.55;;;;;;;23.95;44.66;101984.97;4986849;28;20046;-35
2023/09/15 09:10:40;;;;;;;13.20;6.43;;;;;;;23.96;44.75;101975.81;4979941;28;20500;-35
2023/09/15 09:13:06;;;;;;;15.07;7.30;;;;;;;23.98;44.46;101971.94;4982981;28;20054;-35
2023/09/15 09:15:34;;;;;;;18.17;6.70;;;;;;;24.01;44.22;101971.63;4981591;28;20066;-35
2023/09/15 09:18:01;;;;;;;11.40;5.35;;;;;;;24.02;44.52;101969.75;4980895;28;20129;-35
2023/09/15 09:20:28;;;;;;;11.93;5.15;;;;;;;24.04;44.23;101968.59;4979572;28;20055;-35
2023/09/15 09:22:55;;;;;;;9.98;4.38;;;;;;;24.08;43.44;101966.38;4981477;28;20485;-35
2023/09/15 09:25:29;;;;;;;10.30;4.20;;;;;;;24.10;43.24;101964.34;4981769;28;20097;-35
2023/09/15 09:27:56;;;;;;;10.50;4.25;;;;;;;24.13;43.62;101953.19;4980552;28;20101;-35
2023/09/15 09:30:26;;;;;;;7.25;3.75;;;;;;;24.17;43.48;101956.44;4984646;28;20053;-36
2023/09/15 09:32:52;;;;;;;10.00;4.07;;;;;;;24.21;42.79;101952.38;4984465;28;20105;-36
2023/09/15 09:35:19;;;;;;;6.47;3.67;;;;;;;24.25;43.20;101953.72;4988854;28;20061;-36
2023/09/15 09:37:47;;;;;;;10.25;4.32;;;;;;;24.29;42.71;101946.94;4988328;28;20117;-36
2023/09/15 09:40:14;;;;;;;7.43;4.30;;;;;;;24.34;43.31;101956.25;4984391;28;20042;-36
2023/09/15 09:42:42;;;;;;;8.93;3.65;;;;;;;24.39;42.49;101953.06;4974957;28;20065;-36
2023/09/15 09:45:09;;;;;;;9.80;3.92;;;;;;;24.43;42.79;101940.88;4981624;28;20046;-36
2023/09/15 09:47:36;;;;;;;11.38;4.45;;;;;;;24.49;43.26;101945.63;4979485;28;20058;-36
2023/09/15 09:50:06;;;;;;;5.07;3.10;;;;;;;24.54;43.04;101932.41;4977489;28;20058;-36
2023/09/15 09:52:33;;;;;;;8.32;3.33;;;;;;;24.60;42.84;101939.00;4985073;28;20078;-36
2023/09/15 09:55:10;;;;;;;10.10;3.72;;;;;;;24.66;43.20;101929.34;4980457;28;20106;-36
2023/09/15 09:57:37;;;;;;;8.13;3.65;;;;;;;24.72;42.75;101934.06;4987658;28;20133;-37
2023/09/15 10:00:09;;;;;;;7.93;3.38;;;;;;;24.77;42.78;101937.97;4981133;28;20105;-36
2023/09/15 10:02:40;;;;;;;6.47;2.65;;;;;;;24.81;42.50;101927.63;4985059;28;20054;-36
2023/09/15 10:05:07;;;;;;;6.15;3.03;;;;;;;24.87;42.67;101924.22;4981498;28;20500;-36
2023/09/15 10:07:36;;;;;;;7.32;3.20;;;;;;;24.92;42.53;101929.13;4984154;28;20100;-36
2023/09/15 10:10:03;;;;;;;6.50;3.38;;;;;;;24.95;42.66;101918.78;4983785;28;20062;-36
2023/09/15 10:12:30;;;;;;;6.13;3.03;;;;;;;25.00;42.39;101926.38;4978784;28;20390;-36
2023/09/15 10:14:58;;;;;;;12.27;2.85;;;;;;;25.03;42.49;101916.03;4978352;28;20049;-37
2023/09/15 10:17:26;;;;;;;6.60;3.20;;;;;;;25.08;42.02;101921.78;4982149;28;20413;-37
2023/09/15 10:19:53;;;;;;;5.85;3.05;;;;;;;25.10;41.80;101911.66;4984052;28;20047;-37
2023/09/15 10:22:21;;;;;;;5.60;3.55;;;;;;;25.16;41.76;101917.38;4981524;28;20046;-37
2023/09/15 10:24:56;;;;;;;5.82;3.38;;;;;;;25.19;41.18;101920.59;4981326;28;20607;-36
2023/09/15 10:27:25;;;;;;;5.00;3.22;;;;;;;25.23;40.80;101921.94;4985850;28;20070;-37
2023/09/15 10:29:52;;;;;;;8.00;3.55;;;;;;;25.27;40.36;101917.84;4979540;28;20470;-37
2023/09/15 10:32:19;;;;;;;7.90;3.50;;;;;;;25.29;40.48;101910.41;4983527;28;20143;-37
2023/09/15 10:34:48;;;;;;;7.28;4.57;;;;;;;25.33;40.84;101905.47;4980843;28;20047;-36
2023/09/15 10:37:15;;;;;;;8.00;5.57;;;;;;;25.37;40.45;101906.81;4974673;28;20540;-36
2023/09/15 10:39:42;;;;;;;11.20;5.55;;;;;;;25.39;40.58;101893.88;4980445;28;20745;-36
2023/09/15 10:42:11;;;;;;;10.18;5.53;;;;;;;25.42;40.68;101896.25;4982140;28;20055;-36
2023/09/15 10:44:37;;;;;;;9.77;4.30;;;;;;;25.45;40.52;101886.91;4981404;28;20603;-36
2023/09/15 10:47:15;;;;;;;10.30;5.85;;;;;;;25.47;40.26;101877.56;4981475;28;20326;-36
2023/09/15 10:49:54;;;;;;;8.05;5.13;;;;;;;25.51;40.50;101880.78;4978631;28;20058;-36
2023/09/15 10:52:37;;;;;;;8.35;4.30;;;;;;;25.53;40.22;101879.56;4983214;28;20450;-36
2023/09/15 10:55:05;;;;;;;9.20;4.63;;;;;;;25.57;40.09;101877.34;4977963;28;20054;-36
2023/09/15 10:57:36;;;;;;;9.82;3.83;;;;;;;25.59;39.97;101878.00;4979846;28;20089;-36
2023/09/15 11:00:06;;;;;;;4.70;3.70;;;;;;;25.60;40.01;101864.25;4980477;28;20050;-36
2023/09/15 11:02:38;;;;;;;5.63;3.33;;;;;;;25.63;39.77;101864.91;4979231;28;20101;-36
2023/09/15 11:05:05;;;;;;;6.80;3.15;;;;;;;25.65;39.67;101866.44;4983174;28;20055;-35
2023/09/15 11:07:36;;;;;;;7.03;3.80;;;;;;;25.67;39.38;101860.81;4976999;28;20059;-36
2023/09/15 11:10:05;;;;;;;5.63;3.40;;;;;;;25.69;39.63;101865.06;4980647;28;20058;-36
2023/09/15 11:12:32;;;;;;;6.70;3.28;;;;;;;25.70;39.94;101857.75;4981738;28;20055;-36
2023/09/15 11:14:59;;;;;;;7.22;3.25;;;;;;;25.72;39.61;101856.53;4979287;28;20053;-36
2023/09/15 11:17:28;;;;;;;4.15;2.97;;;;;;;25.71;39.59;101843.16;4977785;28;20058;-36
2023/09/15 11:19:55;;;;;;;7.43;3.22;;;;;;;25.73;39.56;101846.50;4976776;28;20137;-36
2023/09/15 11:22:22;;;;;;;6.30;3.45;;;;;;;25.73;39.06;101836.50;4978818;28;20046;-36
2023/09/15 11:24:51;;;;;;;6.30;3.10;;;;;;;25.75;39.01;101848.03;4980864;28;20141;-36